Position Fahrer Laps Zeit Diff Beste Runde Fahrzeug Status Gesamt Bonuspunkte Strafpunkte
1 Goe Stettler 23 35:12.787 - 1:30.321 Porsche 991.2 GT3 Cup Beendet 23,21 0 0
2 Oliver Kern 23 35:14.869 0:02.082 1:30.924 Porsche 991.2 GT3 Cup Beendet 19,64 0 0
3 Adi Stettler 23 35:18.680 0:05.893 1:31.032 Porsche 991.2 GT3 Cup Beendet 16,07 0 0
4 Gabriel Fürstner 23 35:28.577 0:15.790 1:30.999 Porsche 991.2 GT3 Cup Beendet 12,5 0 0
5 Daniel Ehrlich 23 35:29.363 0:16.576 1:31.398 Porsche 991.2 GT3 Cup Beendet 8,93 0 0
6 Florian Graf 23 35:56.414 0:43.627 1:31.242 Porsche 991.2 GT3 Cup Beendet 5,36 0 0
7 Florian Becker 22 35:25.828 -1L 1:35.610 Porsche 718 Cayman GT4 Clubsport MR Beendet 23,86 0 0
8 Daniel Amhof 22 35:27.031 -1L 1:35.580 Porsche 718 Cayman GT4 Clubsport MR Beendet 21,59 0 0
9 Dennis Manojlovic 22 35:52.175 -1L 1:36.252 Porsche 718 Cayman GT4 Clubsport MR Beendet 19,32 0 0
10 Ralf Waldek 22 35:57.326 -1L 1:36.609 Porsche 718 Cayman GT4 Clubsport MR Beendet 17,05 0 0
11 Christian Nesmiyan 22 36:01.936 -1L 1:36.426 Porsche 718 Cayman GT4 Clubsport MR Beendet 14,77 0 0
12 Michael Seyfert 22 36:03.788 -1L 1:35.697 Porsche 718 Cayman GT4 Clubsport MR Beendet 12,5 0 0
13 Joseph Rychciak 22 36:08.939 -1L 1:36.603 Porsche 718 Cayman GT4 Clubsport MR Beendet 10,23 0 0
14 Heiko Schumacher 22 36:24.842 -1L 1:36.252 Porsche 718 Cayman GT4 Clubsport MR Beendet 7,95 0 0
15 Richard Lindhorst 17 27:30.217 -6L 1:35.775 Porsche 718 Cayman GT4 Clubsport MR Beendet 0 0 0
16 Marco Küttelwesch 13 22:10.318 -10L 1:36.093 Porsche 718 Cayman GT4 Clubsport MR Beendet 0 0 0
17 Maurice Hoogenhout 11 18:46.904 -12L 1:37.224 Porsche 718 Cayman GT4 Clubsport MR Beendet 0 0 0
18 Dennis Hillmann 8 13:59.152 -15L 1:33.060 Porsche 991.2 GT3 Cup Beendet 0 0 0

Rennverlauf

Die schnellsten 5 pro Runde

Runde 1

Pos Rennpos Fahrer Zeit Diff
1 1 Goe Stettler 1:34.198 -
2 2 Oliver Kern 1:34.639 0:00.441
3 3 Adi Stettler 1:35.285 0:01.087
4 4 Gabriel Fürstner 1:36.491 0:02.293
5 5 Daniel Ehrlich 1:37.679 0:03.481

Runde 2

Pos Rennpos Fahrer Zeit Diff
1 1 Goe Stettler 1:30.768 -
2 2 Oliver Kern 1:31.458 0:00.690
3 4 Gabriel Fürstner 1:31.527 0:00.759
4 5 Daniel Ehrlich 1:31.611 0:00.843
5 3 Adi Stettler 1:31.623 0:00.855

Runde 3

Pos Rennpos Fahrer Zeit Diff
1 1 Goe Stettler 1:30.321 -
2 2 Oliver Kern 1:30.924 0:00.603
3 3 Adi Stettler 1:31.065 0:00.744
4 4 Gabriel Fürstner 1:31.497 0:01.176
5 5 Daniel Ehrlich 1:31.536 0:01.215

Runde 4

Pos Rennpos Fahrer Zeit Diff
1 1 Goe Stettler 1:30.513 -
2 3 Adi Stettler 1:31.059 0:00.546
3 4 Gabriel Fürstner 1:31.122 0:00.609
4 2 Oliver Kern 1:31.182 0:00.669
5 5 Daniel Ehrlich 1:31.398 0:00.885

Runde 5

Pos Rennpos Fahrer Zeit Diff
1 1 Goe Stettler 1:30.819 -
2 3 Adi Stettler 1:31.344 0:00.525
3 2 Oliver Kern 1:31.356 0:00.537
4 5 Daniel Ehrlich 1:31.488 0:00.669
5 4 Gabriel Fürstner 1:31.518 0:00.699

Runde 6

Pos Rennpos Fahrer Zeit Diff
1 2 Oliver Kern 1:31.005 -
2 1 Goe Stettler 1:31.302 0:00.297
3 3 Adi Stettler 1:31.401 0:00.396
4 9 Florian Graf 1:31.977 0:00.972
5 4 Gabriel Fürstner 1:33.051 0:02.046

Runde 7

Pos Rennpos Fahrer Zeit Diff
1 1 Goe Stettler 1:31.017 -
2 3 Adi Stettler 1:31.032 0:00.015
3 4 Gabriel Fürstner 1:31.173 0:00.156
4 2 Oliver Kern 1:31.539 0:00.522
5 5 Daniel Ehrlich 1:31.977 0:00.960

Runde 8

Pos Rennpos Fahrer Zeit Diff
1 1 Goe Stettler 1:30.954 -
2 4 Gabriel Fürstner 1:30.999 0:00.045
3 3 Adi Stettler 1:31.119 0:00.165
4 2 Oliver Kern 1:31.257 0:00.303
5 5 Daniel Ehrlich 1:31.929 0:00.975

Runde 9

Pos Rennpos Fahrer Zeit Diff
1 2 Oliver Kern 1:31.113 -
2 1 Goe Stettler 1:31.143 0:00.030
3 3 Adi Stettler 1:31.173 0:00.060
4 4 Gabriel Fürstner 1:31.365 0:00.252
5 5 Daniel Ehrlich 1:31.485 0:00.372

Runde 10

Pos Rennpos Fahrer Zeit Diff
1 1 Goe Stettler 1:31.092 -
2 3 Adi Stettler 1:31.137 0:00.045
3 4 Gabriel Fürstner 1:31.344 0:00.252
4 2 Oliver Kern 1:31.359 0:00.267
5 6 Florian Graf 1:31.584 0:00.492

Runde 11

Pos Rennpos Fahrer Zeit Diff
1 2 Oliver Kern 1:31.095 -
2 4 Gabriel Fürstner 1:31.614 0:00.519
3 1 Goe Stettler 1:31.680 0:00.585
4 6 Florian Graf 1:31.863 0:00.768
5 3 Adi Stettler 1:32.292 0:01.197

Runde 12

Pos Rennpos Fahrer Zeit Diff
1 1 Goe Stettler 1:30.993 -
2 3 Adi Stettler 1:31.512 0:00.519
3 2 Oliver Kern 1:31.593 0:00.600
4 6 Florian Graf 1:31.980 0:00.987
5 4 Gabriel Fürstner 1:32.268 0:01.275

Runde 13

Pos Rennpos Fahrer Zeit Diff
1 1 Goe Stettler 1:30.834 -
2 4 Gabriel Fürstner 1:31.359 0:00.525
3 2 Oliver Kern 1:31.485 0:00.651
4 6 Florian Graf 1:31.533 0:00.699
5 3 Adi Stettler 1:31.572 0:00.738

Runde 14

Pos Rennpos Fahrer Zeit Diff
1 2 Oliver Kern 1:31.197 -
2 6 Florian Graf 1:31.242 0:00.045
3 1 Goe Stettler 1:31.263 0:00.066
4 4 Gabriel Fürstner 1:31.662 0:00.465
5 3 Adi Stettler 1:32.013 0:00.816

Runde 15

Pos Rennpos Fahrer Zeit Diff
1 6 Florian Graf 1:31.794 -
2 1 Goe Stettler 1:31.992 0:00.198
3 2 Oliver Kern 1:32.190 0:00.396
4 3 Adi Stettler 1:32.529 0:00.735
5 4 Gabriel Fürstner 1:32.619 0:00.825

Runde 16

Pos Rennpos Fahrer Zeit Diff
1 1 Goe Stettler 1:31.359 -
2 6 Florian Graf 1:31.812 0:00.453
3 5 Daniel Ehrlich 1:31.842 0:00.483
4 4 Gabriel Fürstner 1:31.878 0:00.519
5 2 Oliver Kern 1:32.190 0:00.831

Runde 17

Pos Rennpos Fahrer Zeit Diff
1 2 Oliver Kern 1:31.536 -
2 1 Goe Stettler 1:31.683 0:00.147
3 6 Florian Graf 1:31.710 0:00.174
4 4 Gabriel Fürstner 1:32.388 0:00.852
5 3 Adi Stettler 1:32.907 0:01.371

Runde 18

Pos Rennpos Fahrer Zeit Diff
1 6 Florian Graf 1:31.659 -
2 4 Gabriel Fürstner 1:31.923 0:00.264
3 1 Goe Stettler 1:32.124 0:00.465
4 2 Oliver Kern 1:32.184 0:00.525
5 3 Adi Stettler 1:32.553 0:00.894

Runde 19

Pos Rennpos Fahrer Zeit Diff
1 4 Gabriel Fürstner 1:31.278 -
2 2 Oliver Kern 1:31.722 0:00.444
3 3 Adi Stettler 1:31.857 0:00.579
4 6 Florian Graf 1:32.583 0:01.305
5 1 Goe Stettler 1:33.021 0:01.743

Runde 20

Pos Rennpos Fahrer Zeit Diff
1 6 Florian Graf 1:32.079 -
2 5 Daniel Ehrlich 1:32.832 0:00.753
3 3 Adi Stettler 1:33.783 0:01.704
4 1 Oliver Kern 1:34.593 0:02.514
5 8 Daniel Amhof 1:36.501 0:04.422

Runde 21

Pos Rennpos Fahrer Zeit Diff
1 6 Florian Graf 1:31.710 -
2 4 Gabriel Fürstner 1:31.851 0:00.141
3 5 Daniel Ehrlich 1:31.878 0:00.168
4 2 Goe Stettler 1:32.034 0:00.324
5 1 Oliver Kern 1:32.358 0:00.648

Runde 22

Pos Rennpos Fahrer Zeit Diff
1 1 Goe Stettler 1:31.266 -
2 4 Gabriel Fürstner 1:32.025 0:00.759
3 5 Daniel Ehrlich 1:32.487 0:01.221
4 6 Florian Graf 1:32.718 0:01.452
5 3 Adi Stettler 1:32.979 0:01.713

Runde 23

Pos Rennpos Fahrer Zeit Diff
1 5 Daniel Ehrlich 1:31.686 -
2 1 Goe Stettler 1:31.728 0:00.042
3 3 Adi Stettler 1:32.418 0:00.732
4 4 Gabriel Fürstner 1:33.111 0:01.425
5 6 Florian Graf 1:33.267 0:01.581

SERVER

0/31
virtualracing.org#4 GTC Training Standard
TrainingDaytona International Speedway - Road Course
0/31
virtualracing.org#5 GTC Training A
TrainingDaytona International Speedway - Road Course
0/24
virtualracing.org#30 ALT Training
TrainingFuji Speedway - Grand Prix Circuit 1968
0/32
virtualracing.org#33 GTC Starttest
TrainingDaytona International Speedway - Road Course